Forester — DIUT — position and weather

sailwx.info

Track history (hours):
 
Tides and Currents Weather Stations Pressure Air Temp Water Temp Dewpoint Dewpoint Depression Visibility Wind Speed Wind Dir Waves Ship Positions

Forester

Last reported at 2015-Jan-30 03:22 UTC. Time now 2015-Feb-01 07:14 UTC.
Position N 39°15' W 009°49'.

Length 100 m; draft 7.3 m.

Type: Ship. MMSI: 211233870.

Date/timePositionNaut miles runAvg speedWind from/ knotsBaromVisibWave heightAir tempDewpointWater temp
2015-Jan-30 03:22N 39°15' W 009°49'6 6.6
2015-Jan-30 02:30N 39°09' W 009°49'7 7.0
2015-Jan-30 01:32N 39°02' W 009°50'7 6.8
2015-Jan-30 00:33N 38°56' W 009°50'7 7.0
2015-Jan-29 23:32N 38°49' W 009°50'7 7.2
2015-Jan-29 22:33N 38°41' W 009°50'7 7.3
2015-Jan-29 21:33N 38°34' W 009°47'8 7.6
2015-Jan-29 20:33N 38°27' W 009°45'8 7.9
2015-Jan-29 19:32N 38°19' W 009°43'9 8.5
2015-Jan-29 18:32N 38°11' W 009°41'9 8.9
2015-Jan-29 17:33N 38°02' W 009°38'9 9.4
2015-Jan-29 16:33N 37°53' W 009°36'10 9.6
2015-Jan-29 15:33N 37°44' W 009°33'9 9.1
2015-Jan-29 14:33N 37°35' W 009°30'10 9.6
2015-Jan-29 13:32N 37°26' W 009°27'12 9.8
2015-Jan-29 12:17N 37°14' W 009°24'10 9.7
2015-Jan-29 11:14N 37°04' W 009°21'43 8.9
2015-Jan-29 06:29N 36°39' W 008°38'157 9.9
2015-Jan-28 14:32N 36°00' W 005°29'6 6.3
2015-Jan-28 13:32N 36°02' W 005°21'193 5.8
2015-Jan-27 04:12N 37°14' W 001°38'710.8
2015-Jan-27 03:32N 37°17' W 001°29'1010.6
2015-Jan-27 02:33N 37°20' W 001°17'1010.5
2015-Jan-27 01:33N 37°24' W 001°05'1110.8
2015-Jan-27 00:33N 37°28' W 000°52'1110.7
2015-Jan-26 23:33N 37°32' W 000°40'1010.1
2015-Jan-26 22:33N 37°40' W 000°32'1110.9
2015-Jan-26 21:33N 37°50' W 000°29'1110.7
2015-Jan-26 20:33N 38°01' W 000°26'1010.4
2015-Jan-26 19:33N 38°11' W 000°25'7 0.2
2015-Jan-25 13:20N 38°04' W 000°26'7 9.0
2015-Jan-25 12:33N 37°57' W 000°28'9 9.2
2015-Jan-25 11:33N 37°48' W 000°30'18 8.5
2015-Jan-25 09:30N 37°31' W 000°35'10 8.7
2015-Jan-25 08:21N 37°25' W 000°45'15 8.5
2015-Jan-25 06:33N 37°16' W 001°00'213 9.5
2015-Jan-24 08:09N 35°60' W 005°08'813.1
2015-Jan-24 07:33N 35°59' W 005°17'15 0.3
2015-Jan-22 11:33N 35°59' W 005°36'1110.8
2015-Jan-22 10:32N 36°02' W 005°23'8 8.0
2015-Jan-22 09:33N 36°06' W 005°14'  
Track history (hours):
 
Tides and Currents Weather Stations Pressure Air Temp Water Temp Dewpoint Dewpoint Depression Visibility Wind Speed Wind Dir Waves Ship Positions

Forester

Last reported at 2015-Jan-30 03:22 UTC. Time now 2015-Feb-01 07:14 UTC.
Position N 39°15' W 009°49'.

Length 100 m; draft 7.3 m.

Type: Ship. MMSI: 211233870.

Date/timePositionNaut miles runAvg speedWind from/ knotsBaromVisibWave heightAir tempDewpointWater temp
2015-Jan-30 03:22N 39°15' W 009°49'6 6.6
2015-Jan-30 02:30N 39°09' W 009°49'7 7.0
2015-Jan-30 01:32N 39°02' W 009°50'7 6.8
2015-Jan-30 00:33N 38°56' W 009°50'7 7.0
2015-Jan-29 23:32N 38°49' W 009°50'7 7.2
2015-Jan-29 22:33N 38°41' W 009°50'7 7.3
2015-Jan-29 21:33N 38°34' W 009°47'8 7.6
2015-Jan-29 20:33N 38°27' W 009°45'8 7.9
2015-Jan-29 19:32N 38°19' W 009°43'9 8.5
2015-Jan-29 18:32N 38°11' W 009°41'9 8.9
2015-Jan-29 17:33N 38°02' W 009°38'9 9.4
2015-Jan-29 16:33N 37°53' W 009°36'10 9.6
2015-Jan-29 15:33N 37°44' W 009°33'9 9.1
2015-Jan-29 14:33N 37°35' W 009°30'10 9.6
2015-Jan-29 13:32N 37°26' W 009°27'12 9.8
2015-Jan-29 12:17N 37°14' W 009°24'10 9.7
2015-Jan-29 11:14N 37°04' W 009°21'43 8.9
2015-Jan-29 06:29N 36°39' W 008°38'157 9.9
2015-Jan-28 14:32N 36°00' W 005°29'6 6.3
2015-Jan-28 13:32N 36°02' W 005°21'193 5.8
2015-Jan-27 04:12N 37°14' W 001°38'710.8
2015-Jan-27 03:32N 37°17' W 001°29'1010.6
2015-Jan-27 02:33N 37°20' W 001°17'1010.5
2015-Jan-27 01:33N 37°24' W 001°05'1110.8
2015-Jan-27 00:33N 37°28' W 000°52'1110.7
2015-Jan-26 23:33N 37°32' W 000°40'1010.1
2015-Jan-26 22:33N 37°40' W 000°32'1110.9
2015-Jan-26 21:33N 37°50' W 000°29'1110.7
2015-Jan-26 20:33N 38°01' W 000°26'1010.4
2015-Jan-26 19:33N 38°11' W 000°25'7 0.2
2015-Jan-25 13:20N 38°04' W 000°26'7 9.0
2015-Jan-25 12:33N 37°57' W 000°28'9 9.2
2015-Jan-25 11:33N 37°48' W 000°30'18 8.5
2015-Jan-25 09:30N 37°31' W 000°35'10 8.7
2015-Jan-25 08:21N 37°25' W 000°45'15 8.5
2015-Jan-25 06:33N 37°16' W 001°00'213 9.5
2015-Jan-24 08:09N 35°60' W 005°08'813.1
2015-Jan-24 07:33N 35°59' W 005°17'15 0.3
2015-Jan-22 11:33N 35°59' W 005°36'1110.8
2015-Jan-22 10:32N 36°02' W 005°23'8 8.0
2015-Jan-22 09:33N 36°06' W 005°14'  

Dump ship's entire track history